sensor_id;sensor_type;location;lat;lon;timestamp;P1;durP1;ratioP1;P2;durP2;ratioP2
3873;SDS011;1952;50.872;6.692;2022-10-16T00:30:15;3.77;;;3.57;;
3873;SDS011;1952;50.872;6.692;2022-10-16T00:32:44;3.50;;;3.20;;
3873;SDS011;1952;50.872;6.692;2022-10-16T00:35:12;3.37;;;3.10;;
3873;SDS011;1952;50.872;6.692;2022-10-16T00:37:41;4.47;;;3.60;;
3873;SDS011;1952;50.872;6.692;2022-10-16T00:40:14;3.53;;;3.33;;
3873;SDS011;1952;50.872;6.692;2022-10-16T00:42:43;5.90;;;3.53;;
3873;SDS011;1952;50.872;6.692;2022-10-16T00:45:11;4.47;;;3.57;;
3873;SDS011;1952;50.872;6.692;2022-10-16T00:47:47;4.00;;;3.70;;
3873;SDS011;1952;50.872;6.692;2022-10-16T00:50:21;3.33;;;3.13;;
3873;SDS011;1952;50.872;6.692;2022-10-16T00:52:54;3.30;;;3.10;;
3873;SDS011;1952;50.872;6.692;2022-10-16T00:55:26;3.00;;;2.70;;
3873;SDS011;1952;50.872;6.692;2022-10-16T00:58:02;4.20;;;3.80;;
3873;SDS011;1952;50.872;6.692;2022-10-16T01:00:35;3.90;;;3.60;;
3873;SDS011;1952;50.872;6.692;2022-10-16T01:05:59;3.47;;;3.17;;
3873;SDS011;1952;50.872;6.692;2022-10-16T01:08:58;5.43;;;3.20;;
3873;SDS011;1952;50.872;6.692;2022-10-16T01:11:33;3.27;;;3.07;;
3873;SDS011;1952;50.872;6.692;2022-10-16T01:14:13;4.03;;;2.83;;
3873;SDS011;1952;50.872;6.692;2022-10-16T01:16:48;3.20;;;2.97;;
3873;SDS011;1952;50.872;6.692;2022-10-16T01:19:25;3.87;;;3.67;;
3873;SDS011;1952;50.872;6.692;2022-10-16T01:22:08;4.03;;;3.43;;
3873;SDS011;1952;50.872;6.692;2022-10-16T01:24:38;3.57;;;3.20;;
3873;SDS011;1952;50.872;6.692;2022-10-16T01:27:11;4.10;;;3.37;;
3873;SDS011;1952;50.872;6.692;2022-10-16T01:29:42;4.17;;;3.10;;
3873;SDS011;1952;50.872;6.692;2022-10-16T01:32:33;3.47;;;3.23;;
3873;SDS011;1952;50.872;6.692;2022-10-16T01:35:07;2.70;;;2.50;;
3873;SDS011;1952;50.872;6.692;2022-10-16T01:37:44;3.23;;;3.03;;
3873;SDS011;1952;50.872;6.692;2022-10-16T01:40:17;3.53;;;3.30;;
3873;SDS011;1952;50.872;6.692;2022-10-16T01:42:50;3.37;;;3.07;;
3873;SDS011;1952;50.872;6.692;2022-10-16T01:45:27;3.77;;;3.43;;
3873;SDS011;1952;50.872;6.692;2022-10-16T01:47:57;3.63;;;3.33;;
3873;SDS011;1952;50.872;6.692;2022-10-16T01:50:35;4.20;;;3.90;;
3873;SDS011;1952;50.872;6.692;2022-10-16T01:53:06;3.67;;;3.47;;
3873;SDS011;1952;50.872;6.692;2022-10-16T01:55:37;3.43;;;3.23;;
3873;SDS011;1952;50.872;6.692;2022-10-16T01:58:17;3.90;;;3.60;;
3873;SDS011;1952;50.872;6.692;2022-10-16T02:00:45;3.90;;;3.67;;
3873;SDS011;1952;50.872;6.692;2022-10-16T02:03:16;4.40;;;4.10;;
3873;SDS011;1952;50.872;6.692;2022-10-16T02:05:47;4.20;;;3.80;;
3873;SDS011;1952;50.872;6.692;2022-10-16T02:08:19;4.20;;;3.90;;
3873;SDS011;1952;50.872;6.692;2022-10-16T02:10:55;3.97;;;3.57;;
3873;SDS011;1952;50.872;6.692;2022-10-16T02:13:28;2.93;;;2.73;;
3873;SDS011;1952;50.872;6.692;2022-10-16T02:16:05;3.07;;;2.87;;
3873;SDS011;1952;50.872;6.692;2022-10-16T02:18:34;3.40;;;3.10;;
3873;SDS011;1952;50.872;6.692;2022-10-16T02:21:05;4.73;;;3.30;;
3873;SDS011;1952;50.872;6.692;2022-10-16T02:23:42;3.10;;;2.90;;
3873;SDS011;1952;50.872;6.692;2022-10-16T02:26:19;3.27;;;3.00;;
3873;SDS011;1952;50.872;6.692;2022-10-16T02:28:58;3.10;;;2.90;;
3873;SDS011;1952;50.872;6.692;2022-10-16T02:31:38;3.73;;;3.43;;
3873;SDS011;1952;50.872;6.692;2022-10-16T02:34:15;3.70;;;3.23;;
3873;SDS011;1952;50.872;6.692;2022-10-16T02:36:44;3.00;;;2.80;;
3873;SDS011;1952;50.872;6.692;2022-10-16T02:39:14;3.37;;;3.07;;
3873;SDS011;1952;50.872;6.692;2022-10-16T02:41:43;2.73;;;2.53;;
3873;SDS011;1952;50.872;6.692;2022-10-16T02:44:13;2.57;;;2.37;;
3873;SDS011;1952;50.872;6.692;2022-10-16T02:46:41;2.60;;;2.40;;
3873;SDS011;1952;50.872;6.692;2022-10-16T02:49:14;7.13;;;2.60;;
3873;SDS011;1952;50.872;6.692;2022-10-16T02:51:44;2.60;;;2.40;;
3873;SDS011;1952;50.872;6.692;2022-10-16T02:54:20;2.40;;;2.20;;
3873;SDS011;1952;50.872;6.692;2022-10-16T02:56:48;2.70;;;2.50;;
3873;SDS011;1952;50.872;6.692;2022-10-16T02:59:23;2.27;;;2.07;;
3873;SDS011;1952;50.872;6.692;2022-10-16T03:01:51;2.80;;;2.60;;
3873;SDS011;1952;50.872;6.692;2022-10-16T03:04:19;1.90;;;1.80;;
3873;SDS011;1952;50.872;6.692;2022-10-16T03:06:48;2.03;;;1.93;;
3873;SDS011;1952;50.872;6.692;2022-10-16T03:09:16;2.30;;;2.20;;
3873;SDS011;1952;50.872;6.692;2022-10-16T03:11:45;4.40;;;2.50;;
3873;SDS011;1952;50.872;6.692;2022-10-16T03:14:13;2.50;;;2.40;;
3873;SDS011;1952;50.872;6.692;2022-10-16T03:16:48;2.63;;;2.43;;
3873;SDS011;1952;50.872;6.692;2022-10-16T03:19:17;1.83;;;1.73;;
3873;SDS011;1952;50.872;6.692;2022-10-16T03:21:45;2.90;;;2.30;;
3873;SDS011;1952;50.872;6.692;2022-10-16T03:24:14;2.27;;;2.10;;
3873;SDS011;1952;50.872;6.692;2022-10-16T03:26:46;2.20;;;1.97;;
3873;SDS011;1952;50.872;6.692;2022-10-16T03:29:15;2.97;;;2.40;;
3873;SDS011;1952;50.872;6.692;2022-10-16T03:31:43;2.20;;;2.10;;
3873;SDS011;1952;50.872;6.692;2022-10-16T03:34:18;1.80;;;1.70;;
3873;SDS011;1952;50.872;6.692;2022-10-16T03:36:46;6.70;;;2.07;;
3873;SDS011;1952;50.872;6.692;2022-10-16T03:39:14;2.50;;;2.40;;
3873;SDS011;1952;50.872;6.692;2022-10-16T03:41:42;2.47;;;2.37;;
3873;SDS011;1952;50.872;6.692;2022-10-16T03:44:17;2.30;;;2.20;;
3873;SDS011;1952;50.872;6.692;2022-10-16T03:46:46;2.60;;;2.40;;
3873;SDS011;1952;50.872;6.692;2022-10-16T03:49:14;2.63;;;2.43;;
3873;SDS011;1952;50.872;6.692;2022-10-16T03:51:48;3.90;;;3.60;;
3873;SDS011;1952;50.872;6.692;2022-10-16T03:54:16;3.23;;;2.47;;
3873;SDS011;1952;50.872;6.692;2022-10-16T03:56:45;2.10;;;2.00;;
3873;SDS011;1952;50.872;6.692;2022-10-16T03:59:13;2.17;;;2.07;;
3873;SDS011;1952;50.872;6.692;2022-10-16T04:01:42;4.70;;;2.73;;
3873;SDS011;1952;50.872;6.692;2022-10-16T04:04:10;1.63;;;1.53;;
3873;SDS011;1952;50.872;6.692;2022-10-16T04:06:38;2.30;;;2.20;;
3873;SDS011;1952;50.872;6.692;2022-10-16T04:09:09;2.40;;;1.90;;
3873;SDS011;1952;50.872;6.692;2022-10-16T04:11:42;2.23;;;2.00;;
3873;SDS011;1952;50.872;6.692;2022-10-16T04:14:15;2.60;;;2.40;;
3873;SDS011;1952;50.872;6.692;2022-10-16T04:16:43;2.30;;;1.63;;
3873;SDS011;1952;50.872;6.692;2022-10-16T04:19:12;1.90;;;1.80;;
3873;SDS011;1952;50.872;6.692;2022-10-16T04:21:45;2.40;;;2.20;;
3873;SDS011;1952;50.872;6.692;2022-10-16T04:24:14;1.60;;;1.50;;
3873;SDS011;1952;50.872;6.692;2022-10-16T04:26:43;3.53;;;3.33;;
3873;SDS011;1952;50.872;6.692;2022-10-16T04:29:12;2.30;;;2.20;;
3873;SDS011;1952;50.872;6.692;2022-10-16T04:31:45;1.93;;;1.80;;
3873;SDS011;1952;50.872;6.692;2022-10-16T04:34:14;2.20;;;2.10;;
3873;SDS011;1952;50.872;6.692;2022-10-16T04:36:47;1.97;;;1.87;;
3873;SDS011;1952;50.872;6.692;2022-10-16T04:39:22;2.03;;;1.93;;
3873;SDS011;1952;50.872;6.692;2022-10-16T04:41:51;2.33;;;2.10;;
3873;SDS011;1952;50.872;6.692;2022-10-16T04:44:19;2.30;;;2.20;;
3873;SDS011;1952;50.872;6.692;2022-10-16T04:46:52;3.63;;;1.93;;
3873;SDS011;1952;50.872;6.692;2022-10-16T04:49:21;2.00;;;1.90;;
3873;SDS011;1952;50.872;6.692;2022-10-16T04:51:51;2.10;;;2.00;;
3873;SDS011;1952;50.872;6.692;2022-10-16T04:54:19;2.80;;;2.20;;
3873;SDS011;1952;50.872;6.692;2022-10-16T04:56:54;2.20;;;2.10;;
3873;SDS011;1952;50.872;6.692;2022-10-16T04:59:22;1.87;;;1.77;;
3873;SDS011;1952;50.872;6.692;2022-10-16T05:01:50;2.87;;;2.00;;
3873;SDS011;1952;50.872;6.692;2022-10-16T05:04:24;2.60;;;1.97;;
3873;SDS011;1952;50.872;6.692;2022-10-16T05:06:52;3.33;;;2.50;;
3873;SDS011;1952;50.872;6.692;2022-10-16T05:09:20;2.60;;;2.17;;
3873;SDS011;1952;50.872;6.692;2022-10-16T05:11:55;2.33;;;2.17;;
3873;SDS011;1952;50.872;6.692;2022-10-16T05:14:23;1.93;;;1.83;;
3873;SDS011;1952;50.872;6.692;2022-10-16T05:16:52;2.27;;;2.17;;
3873;SDS011;1952;50.872;6.692;2022-10-16T05:19:20;2.20;;;1.90;;
3873;SDS011;1952;50.872;6.692;2022-10-16T05:21:53;2.40;;;2.30;;
3873;SDS011;1952;50.872;6.692;2022-10-16T05:24:21;2.70;;;2.50;;
3873;SDS011;1952;50.872;6.692;2022-10-16T05:26:50;2.67;;;2.47;;
3873;SDS011;1952;50.872;6.692;2022-10-16T05:29:20;2.80;;;2.60;;
3873;SDS011;1952;50.872;6.692;2022-10-16T05:31:49;2.30;;;2.20;;
3873;SDS011;1952;50.872;6.692;2022-10-16T05:34:19;2.33;;;2.23;;
3873;SDS011;1952;50.872;6.692;2022-10-16T05:36:47;2.70;;;2.50;;
3873;SDS011;1952;50.872;6.692;2022-10-16T05:39:17;2.90;;;2.30;;
3873;SDS011;1952;50.872;6.692;2022-10-16T05:41:50;2.80;;;2.47;;
3873;SDS011;1952;50.872;6.692;2022-10-16T05:44:26;2.27;;;2.17;;
3873;SDS011;1952;50.872;6.692;2022-10-16T05:46:55;3.13;;;2.40;;
3873;SDS011;1952;50.872;6.692;2022-10-16T05:49:23;2.80;;;2.60;;
3873;SDS011;1952;50.872;6.692;2022-10-16T05:51:57;2.90;;;2.70;;
3873;SDS011;1952;50.872;6.692;2022-10-16T06:33:00;4.67;;;4.37;;
3873;SDS011;1952;50.872;6.692;2022-10-16T06:35:28;4.07;;;3.77;;
3873;SDS011;1952;50.872;6.692;2022-10-16T06:38:00;4.87;;;4.57;;
3873;SDS011;1952;50.872;6.692;2022-10-16T06:40:34;4.10;;;3.80;;
3873;SDS011;1952;50.872;6.692;2022-10-16T06:43:08;2.93;;;2.73;;
3873;SDS011;1952;50.872;6.692;2022-10-16T06:45:43;6.50;;;3.67;;
3873;SDS011;1952;50.872;6.692;2022-10-16T06:48:15;4.90;;;4.50;;
3873;SDS011;1952;50.872;6.692;2022-10-16T06:50:44;6.17;;;4.10;;
3873;SDS011;1952;50.872;6.692;2022-10-16T06:53:13;4.40;;;4.00;;
3873;SDS011;1952;50.872;6.692;2022-10-16T06:55:41;4.43;;;4.13;;
3873;SDS011;1952;50.872;6.692;2022-10-16T06:58:09;4.57;;;4.17;;
3873;SDS011;1952;50.872;6.692;2022-10-16T07:00:38;3.30;;;3.10;;
3873;SDS011;1952;50.872;6.692;2022-10-16T07:03:07;3.97;;;3.23;;
3873;SDS011;1952;50.872;6.692;2022-10-16T07:05:39;4.23;;;3.93;;
3873;SDS011;1952;50.872;6.692;2022-10-16T07:08:12;3.87;;;3.57;;
3873;SDS011;1952;50.872;6.692;2022-10-16T07:10:42;3.67;;;3.30;;
3873;SDS011;1952;50.872;6.692;2022-10-16T07:13:15;6.13;;;3.20;;
3873;SDS011;1952;50.872;6.692;2022-10-16T07:15:47;3.23;;;3.03;;
3873;SDS011;1952;50.872;6.692;2022-10-16T07:18:20;3.70;;;3.33;;
3873;SDS011;1952;50.872;6.692;2022-10-16T07:21:02;4.03;;;3.10;;
3873;SDS011;1952;50.872;6.692;2022-10-16T07:23:32;3.93;;;3.50;;
3873;SDS011;1952;50.872;6.692;2022-10-16T07:26:02;4.40;;;4.10;;
3873;SDS011;1952;50.872;6.692;2022-10-16T07:28:32;4.13;;;3.83;;
3873;SDS011;1952;50.872;6.692;2022-10-16T07:31:10;4.33;;;3.97;;
3873;SDS011;1952;50.872;6.692;2022-10-16T07:33:45;3.40;;;3.10;;
3873;SDS011;1952;50.872;6.692;2022-10-16T07:36:18;4.60;;;3.67;;
3873;SDS011;1952;50.872;6.692;2022-10-16T07:38:47;2.87;;;2.67;;
3873;SDS011;1952;50.872;6.692;2022-10-16T07:41:17;3.13;;;2.83;;
3873;SDS011;1952;50.872;6.692;2022-10-16T07:43:46;2.83;;;2.63;;
3873;SDS011;1952;50.872;6.692;2022-10-16T07:46:16;2.90;;;2.70;;
3873;SDS011;1952;50.872;6.692;2022-10-16T07:48:48;2.57;;;2.37;;
3873;SDS011;1952;50.872;6.692;2022-10-16T07:51:24;2.50;;;2.30;;
3873;SDS011;1952;50.872;6.692;2022-10-16T07:53:53;2.70;;;2.50;;
3873;SDS011;1952;50.872;6.692;2022-10-16T07:56:22;2.83;;;2.63;;
3873;SDS011;1952;50.872;6.692;2022-10-16T07:58:51;4.50;;;3.30;;
3873;SDS011;1952;50.872;6.692;2022-10-16T08:01:22;3.50;;;3.30;;
3873;SDS011;1952;50.872;6.692;2022-10-16T08:03:51;3.37;;;3.10;;
3873;SDS011;1952;50.872;6.692;2022-10-16T08:06:23;4.30;;;3.60;;
3873;SDS011;1952;50.872;6.692;2022-10-16T08:09:06;4.77;;;3.40;;
3873;SDS011;1952;50.872;6.692;2022-10-16T08:11:41;3.03;;;2.67;;
3873;SDS011;1952;50.872;6.692;2022-10-16T08:14:23;2.83;;;2.63;;
3873;SDS011;1952;50.872;6.692;2022-10-16T08:16:52;2.87;;;2.67;;
3873;SDS011;1952;50.872;6.692;2022-10-16T08:19:20;2.60;;;2.10;;
3873;SDS011;1952;50.872;6.692;2022-10-16T08:22:18;2.37;;;2.27;;
3873;SDS011;1952;50.872;6.692;2022-10-16T08:24:47;2.30;;;2.10;;
3873;SDS011;1952;50.872;6.692;2022-10-16T08:27:16;2.10;;;1.90;;
3873;SDS011;1952;50.872;6.692;2022-10-16T08:29:50;2.30;;;2.10;;
3873;SDS011;1952;50.872;6.692;2022-10-16T08:32:18;2.17;;;1.97;;
3873;SDS011;1952;50.872;6.692;2022-10-16T08:34:52;1.70;;;1.60;;
3873;SDS011;1952;50.872;6.692;2022-10-16T08:37:24;2.07;;;1.90;;
3873;SDS011;1952;50.872;6.692;2022-10-16T08:39:52;1.60;;;1.50;;
3873;SDS011;1952;50.872;6.692;2022-10-16T08:42:47;1.97;;;1.60;;
3873;SDS011;1952;50.872;6.692;2022-10-16T08:46:17;2.97;;;1.63;;
3873;SDS011;1952;50.872;6.692;2022-10-16T08:49:24;2.50;;;1.50;;
3873;SDS011;1952;50.872;6.692;2022-10-16T08:52:30;1.93;;;1.40;;
3873;SDS011;1952;50.872;6.692;2022-10-16T08:55:08;1.60;;;1.50;;
3873;SDS011;1952;50.872;6.692;2022-10-16T08:58:09;1.30;;;1.20;;
3873;SDS011;1952;50.872;6.692;2022-10-16T09:00:59;1.40;;;1.30;;
3873;SDS011;1952;50.872;6.692;2022-10-16T09:03:45;1.63;;;1.40;;
3873;SDS011;1952;50.872;6.692;2022-10-16T09:06:50;1.30;;;1.20;;
3873;SDS011;1952;50.872;6.692;2022-10-16T09:09:37;1.17;;;1.07;;
3873;SDS011;1952;50.872;6.692;2022-10-16T09:12:31;1.50;;;1.40;;
3873;SDS011;1952;50.872;6.692;2022-10-16T09:15:23;1.90;;;1.37;;
3873;SDS011;1952;50.872;6.692;2022-10-16T09:18:15;1.50;;;1.40;;
3873;SDS011;1952;50.872;6.692;2022-10-16T09:20:58;2.80;;;1.30;;
3873;SDS011;1952;50.872;6.692;2022-10-16T09:23:48;1.33;;;1.20;;
3873;SDS011;1952;50.872;6.692;2022-10-16T09:32:59;1.40;;;1.20;;
3873;SDS011;1952;50.872;6.692;2022-10-16T09:35:57;1.87;;;1.30;;
3873;SDS011;1952;50.872;6.692;2022-10-16T09:38:48;1.83;;;1.03;;
3873;SDS011;1952;50.872;6.692;2022-10-16T09:41:45;1.57;;;0.80;;
3873;SDS011;1952;50.872;6.692;2022-10-16T09:44:18;1.10;;;1.00;;
3873;SDS011;1952;50.872;6.692;2022-10-16T09:53:56;1.03;;;0.90;;
3873;SDS011;1952;50.872;6.692;2022-10-16T09:56:46;2.40;;;1.53;;
3873;SDS011;1952;50.872;6.692;2022-10-16T09:59:34;2.13;;;0.90;;
3873;SDS011;1952;50.872;6.692;2022-10-16T10:02:41;1.40;;;1.27;;
3873;SDS011;1952;50.872;6.692;2022-10-16T10:05:37;1.63;;;1.10;;
3873;SDS011;1952;50.872;6.692;2022-10-16T10:08:35;1.20;;;1.00;;
3873;SDS011;1952;50.872;6.692;2022-10-16T10:11:42;1.33;;;1.23;;
3873;SDS011;1952;50.872;6.692;2022-10-16T10:14:20;2.13;;;1.00;;
3873;SDS011;1952;50.872;6.692;2022-10-16T10:17:16;1.30;;;1.00;;
3873;SDS011;1952;50.872;6.692;2022-10-16T10:20:25;1.43;;;0.90;;
3873;SDS011;1952;50.872;6.692;2022-10-16T10:23:23;1.70;;;1.00;;
3873;SDS011;1952;50.872;6.692;2022-10-16T10:26:03;1.23;;;1.13;;
3873;SDS011;1952;50.872;6.692;2022-10-16T10:28:46;1.43;;;1.10;;
3873;SDS011;1952;50.872;6.692;2022-10-16T10:31:40;1.10;;;0.90;;
3873;SDS011;1952;50.872;6.692;2022-10-16T10:34:26;1.60;;;1.47;;
3873;SDS011;1952;50.872;6.692;2022-10-16T10:37:42;1.27;;;0.80;;
3873;SDS011;1952;50.872;6.692;2022-10-16T10:40:45;1.83;;;1.10;;
3873;SDS011;1952;50.872;6.692;2022-10-16T10:43:52;1.30;;;1.20;;
3873;SDS011;1952;50.872;6.692;2022-10-16T10:46:38;1.30;;;1.00;;
3873;SDS011;1952;50.872;6.692;2022-10-16T10:49:16;2.00;;;1.17;;
3873;SDS011;1952;50.872;6.692;2022-10-16T10:52:29;1.70;;;1.10;;
3873;SDS011;1952;50.872;6.692;2022-10-16T10:55:17;1.30;;;1.10;;
3873;SDS011;1952;50.872;6.692;2022-10-16T10:58:03;1.77;;;1.00;;
3873;SDS011;1952;50.872;6.692;2022-10-16T11:11:42;4.33;;;1.40;;
3873;SDS011;1952;50.872;6.692;2022-10-16T11:14:30;2.90;;;1.00;;
3873;SDS011;1952;50.872;6.692;2022-10-16T11:17:06;1.53;;;0.93;;
3873;SDS011;1952;50.872;6.692;2022-10-16T11:19:54;1.83;;;1.10;;
3873;SDS011;1952;50.872;6.692;2022-10-16T11:22:44;1.93;;;1.20;;
3873;SDS011;1952;50.872;6.692;2022-10-16T11:25:51;1.10;;;0.87;;
3873;SDS011;1952;50.872;6.692;2022-10-16T11:31:46;1.07;;;0.87;;
3873;SDS011;1952;50.872;6.692;2022-10-16T11:34:32;1.17;;;0.90;;
3873;SDS011;1952;50.872;6.692;2022-10-16T11:37:11;2.47;;;1.07;;
3873;SDS011;1952;50.872;6.692;2022-10-16T11:40:04;1.40;;;1.00;;
3873;SDS011;1952;50.872;6.692;2022-10-16T11:43:12;1.40;;;1.13;;
3873;SDS011;1952;50.872;6.692;2022-10-16T11:46:11;2.00;;;1.00;;
3873;SDS011;1952;50.872;6.692;2022-10-16T12:32:55;2.10;;;1.10;;
3873;SDS011;1952;50.872;6.692;2022-10-16T12:35:43;2.90;;;1.27;;
3873;SDS011;1952;50.872;6.692;2022-10-16T12:38:15;1.37;;;1.27;;
3873;SDS011;1952;50.872;6.692;2022-10-16T12:40:47;3.00;;;1.30;;
3873;SDS011;1952;50.872;6.692;2022-10-16T12:43:37;2.33;;;2.00;;
3873;SDS011;1952;50.872;6.692;2022-10-16T12:46:21;1.80;;;1.40;;
3873;SDS011;1952;50.872;6.692;2022-10-16T12:49:17;1.43;;;1.30;;
3873;SDS011;1952;50.872;6.692;2022-10-16T12:51:50;2.27;;;1.20;;
3873;SDS011;1952;50.872;6.692;2022-10-16T12:54:20;1.50;;;1.10;;
3873;SDS011;1952;50.872;6.692;2022-10-16T12:56:57;1.63;;;1.20;;
3873;SDS011;1952;50.872;6.692;2022-10-16T12:59:51;1.57;;;1.30;;
3873;SDS011;1952;50.872;6.692;2022-10-16T13:02:49;2.50;;;1.30;;
3873;SDS011;1952;50.872;6.692;2022-10-16T13:05:40;1.43;;;1.30;;
3873;SDS011;1952;50.872;6.692;2022-10-16T13:08:34;2.10;;;1.07;;
3873;SDS011;1952;50.872;6.692;2022-10-16T13:11:17;1.97;;;1.40;;
3873;SDS011;1952;50.872;6.692;2022-10-16T13:14:15;2.60;;;1.77;;
3873;SDS011;1952;50.872;6.692;2022-10-16T13:17:04;1.50;;;1.33;;
3873;SDS011;1952;50.872;6.692;2022-10-16T13:19:40;1.50;;;1.40;;
3873;SDS011;1952;50.872;6.692;2022-10-16T13:22:19;2.07;;;1.23;;
3873;SDS011;1952;50.872;6.692;2022-10-16T13:24:56;1.97;;;1.40;;
3873;SDS011;1952;50.872;6.692;2022-10-16T13:27:40;1.67;;;1.13;;
3873;SDS011;1952;50.872;6.692;2022-10-16T13:30:15;3.77;;;1.90;;
3873;SDS011;1952;50.872;6.692;2022-10-16T13:32:58;2.10;;;1.10;;
3873;SDS011;1952;50.872;6.692;2022-10-16T13:35:29;2.73;;;1.40;;
3873;SDS011;1952;50.872;6.692;2022-10-16T13:38:05;1.20;;;1.00;;
3873;SDS011;1952;50.872;6.692;2022-10-16T13:40:54;2.03;;;1.10;;
3873;SDS011;1952;50.872;6.692;2022-10-16T13:43:38;1.10;;;0.90;;
3873;SDS011;1952;50.872;6.692;2022-10-16T14:16:15;3.80;;;3.30;;
3873;SDS011;1952;50.872;6.692;2022-10-16T14:19:01;1.60;;;1.50;;
3873;SDS011;1952;50.872;6.692;2022-10-16T14:30:16;1.63;;;1.53;;
3873;SDS011;1952;50.872;6.692;2022-10-16T14:36:10;1.60;;;1.50;;
3873;SDS011;1952;50.872;6.692;2022-10-16T14:38:41;1.20;;;1.10;;
3873;SDS011;1952;50.872;6.692;2022-10-16T14:41:24;1.50;;;1.40;;
3873;SDS011;1952;50.872;6.692;2022-10-16T14:43:53;1.50;;;1.40;;
3873;SDS011;1952;50.872;6.692;2022-10-16T14:46:28;1.90;;;1.37;;
3873;SDS011;1952;50.872;6.692;2022-10-16T14:49:00;3.33;;;1.33;;
3873;SDS011;1952;50.872;6.692;2022-10-16T14:51:44;2.80;;;2.03;;
3873;SDS011;1952;50.872;6.692;2022-10-16T14:54:17;1.97;;;1.70;;
3873;SDS011;1952;50.872;6.692;2022-10-16T14:56:51;3.03;;;2.83;;
3873;SDS011;1952;50.872;6.692;2022-10-16T14:59:22;1.47;;;1.13;;
3873;SDS011;1952;50.872;6.692;2022-10-16T15:01:52;1.60;;;1.50;;
3873;SDS011;1952;50.872;6.692;2022-10-16T15:04:22;1.67;;;1.57;;
3873;SDS011;1952;50.872;6.692;2022-10-16T15:06:53;1.40;;;1.30;;
3873;SDS011;1952;50.872;6.692;2022-10-16T15:09:22;1.40;;;1.30;;
3873;SDS011;1952;50.872;6.692;2022-10-16T15:11:55;3.07;;;1.40;;
3873;SDS011;1952;50.872;6.692;2022-10-16T15:14:30;2.23;;;1.40;;
3873;SDS011;1952;50.872;6.692;2022-10-16T15:16:58;1.43;;;1.33;;
3873;SDS011;1952;50.872;6.692;2022-10-16T15:19:29;1.93;;;1.47;;
3873;SDS011;1952;50.872;6.692;2022-10-16T15:22:04;1.73;;;1.17;;
3873;SDS011;1952;50.872;6.692;2022-10-16T15:24:33;3.10;;;1.50;;
3873;SDS011;1952;50.872;6.692;2022-10-16T15:27:05;1.67;;;1.57;;
3873;SDS011;1952;50.872;6.692;2022-10-16T15:29:34;1.50;;;1.40;;
3873;SDS011;1952;50.872;6.692;2022-10-16T15:32:08;1.90;;;1.80;;
3873;SDS011;1952;50.872;6.692;2022-10-16T15:37:33;2.63;;;2.40;;
3873;SDS011;1952;50.872;6.692;2022-10-16T15:40:02;3.03;;;1.90;;
3873;SDS011;1952;50.872;6.692;2022-10-16T15:42:35;1.90;;;1.53;;
3873;SDS011;1952;50.872;6.692;2022-10-16T15:45:14;2.30;;;2.10;;
3873;SDS011;1952;50.872;6.692;2022-10-16T15:48:10;2.00;;;1.80;;
3873;SDS011;1952;50.872;6.692;2022-10-16T15:50:41;2.20;;;1.63;;
3873;SDS011;1952;50.872;6.692;2022-10-16T15:53:11;2.60;;;2.13;;
3873;SDS011;1952;50.872;6.692;2022-10-16T15:55:44;2.33;;;2.13;;
3873;SDS011;1952;50.872;6.692;2022-10-16T15:58:28;2.77;;;2.57;;
3873;SDS011;1952;50.872;6.692;2022-10-16T16:01:13;2.37;;;2.17;;
3873;SDS011;1952;50.872;6.692;2022-10-16T16:03:46;2.57;;;2.37;;
3873;SDS011;1952;50.872;6.692;2022-10-16T16:06:16;2.77;;;2.57;;
3873;SDS011;1952;50.872;6.692;2022-10-16T16:08:48;2.10;;;2.00;;
3873;SDS011;1952;50.872;6.692;2022-10-16T16:11:36;3.03;;;2.43;;
3873;SDS011;1952;50.872;6.692;2022-10-16T16:14:06;2.63;;;2.43;;
3873;SDS011;1952;50.872;6.692;2022-10-16T16:16:36;1.40;;;1.30;;
3873;SDS011;1952;50.872;6.692;2022-10-16T16:19:09;2.00;;;1.90;;
3873;SDS011;1952;50.872;6.692;2022-10-16T16:21:39;1.90;;;1.80;;
3873;SDS011;1952;50.872;6.692;2022-10-16T16:24:09;1.50;;;1.30;;
3873;SDS011;1952;50.872;6.692;2022-10-16T16:26:38;1.50;;;1.40;;
3873;SDS011;1952;50.872;6.692;2022-10-16T16:29:14;3.90;;;1.30;;
3873;SDS011;1952;50.872;6.692;2022-10-16T16:31:43;1.93;;;1.50;;
3873;SDS011;1952;50.872;6.692;2022-10-16T16:34:13;2.33;;;1.40;;
3873;SDS011;1952;50.872;6.692;2022-10-16T16:36:45;3.37;;;1.73;;
3873;SDS011;1952;50.872;6.692;2022-10-16T16:39:29;1.93;;;1.80;;
3873;SDS011;1952;50.872;6.692;2022-10-16T16:42:03;3.00;;;2.13;;
3873;SDS011;1952;50.872;6.692;2022-10-16T16:44:33;2.07;;;1.97;;
3873;SDS011;1952;50.872;6.692;2022-10-16T16:47:03;2.03;;;1.93;;
3873;SDS011;1952;50.872;6.692;2022-10-16T16:49:36;2.07;;;1.90;;
3873;SDS011;1952;50.872;6.692;2022-10-16T16:52:09;1.77;;;1.67;;
3873;SDS011;1952;50.872;6.692;2022-10-16T16:54:39;2.00;;;1.83;;
3873;SDS011;1952;50.872;6.692;2022-10-16T16:57:07;1.93;;;1.83;;
3873;SDS011;1952;50.872;6.692;2022-10-16T16:59:35;1.87;;;1.77;;
3873;SDS011;1952;50.872;6.692;2022-10-16T17:02:03;2.47;;;2.27;;
3873;SDS011;1952;50.872;6.692;2022-10-16T17:04:37;2.27;;;2.07;;
3873;SDS011;1952;50.872;6.692;2022-10-16T17:07:06;2.40;;;2.23;;
3873;SDS011;1952;50.872;6.692;2022-10-16T17:09:41;1.90;;;1.80;;
3873;SDS011;1952;50.872;6.692;2022-10-16T17:12:09;1.90;;;1.80;;
3873;SDS011;1952;50.872;6.692;2022-10-16T17:14:38;2.33;;;2.10;;
3873;SDS011;1952;50.872;6.692;2022-10-16T17:17:07;2.17;;;1.97;;
3873;SDS011;1952;50.872;6.692;2022-10-16T17:19:35;2.17;;;2.00;;
3873;SDS011;1952;50.872;6.692;2022-10-16T17:22:08;2.00;;;1.90;;
3873;SDS011;1952;50.872;6.692;2022-10-16T17:24:37;2.50;;;2.30;;
3873;SDS011;1952;50.872;6.692;2022-10-16T17:27:06;2.10;;;2.00;;
3873;SDS011;1952;50.872;6.692;2022-10-16T17:29:40;3.17;;;2.60;;
3873;SDS011;1952;50.872;6.692;2022-10-16T17:32:08;2.90;;;2.70;;
3873;SDS011;1952;50.872;6.692;2022-10-16T17:34:37;3.07;;;2.77;;
3873;SDS011;1952;50.872;6.692;2022-10-16T17:37:07;3.07;;;2.87;;
3873;SDS011;1952;50.872;6.692;2022-10-16T17:39:40;2.60;;;2.40;;
3873;SDS011;1952;50.872;6.692;2022-10-16T17:42:10;2.73;;;2.53;;
3873;SDS011;1952;50.872;6.692;2022-10-16T17:44:38;3.63;;;2.40;;
3873;SDS011;1952;50.872;6.692;2022-10-16T17:47:06;2.93;;;2.60;;
3873;SDS011;1952;50.872;6.692;2022-10-16T17:49:39;2.97;;;2.73;;
3873;SDS011;1952;50.872;6.692;2022-10-16T17:52:08;4.43;;;4.03;;
3873;SDS011;1952;50.872;6.692;2022-10-16T18:35:10;5.20;;;3.30;;
3873;SDS011;1952;50.872;6.692;2022-10-16T18:37:43;3.40;;;3.20;;
3873;SDS011;1952;50.872;6.692;2022-10-16T18:40:11;2.47;;;2.27;;
3873;SDS011;1952;50.872;6.692;2022-10-16T18:42:45;2.60;;;2.40;;
3873;SDS011;1952;50.872;6.692;2022-10-16T18:45:19;3.00;;;2.80;;
3873;SDS011;1952;50.872;6.692;2022-10-16T18:47:53;2.60;;;2.40;;
3873;SDS011;1952;50.872;6.692;2022-10-16T18:50:22;2.60;;;2.50;;
3873;SDS011;1952;50.872;6.692;2022-10-16T18:52:51;3.07;;;2.87;;
3873;SDS011;1952;50.872;6.692;2022-10-16T18:55:19;4.20;;;2.50;;
3873;SDS011;1952;50.872;6.692;2022-10-16T18:57:47;3.00;;;2.80;;
3873;SDS011;1952;50.872;6.692;2022-10-16T19:00:20;3.17;;;2.90;;
3873;SDS011;1952;50.872;6.692;2022-10-16T19:02:54;2.73;;;2.53;;
3873;SDS011;1952;50.872;6.692;2022-10-16T19:05:23;3.27;;;2.97;;
3873;SDS011;1952;50.872;6.692;2022-10-16T19:07:51;4.50;;;3.10;;
3873;SDS011;1952;50.872;6.692;2022-10-16T19:10:22;3.20;;;3.00;;
3873;SDS011;1952;50.872;6.692;2022-10-16T19:12:51;3.43;;;3.13;;
3873;SDS011;1952;50.872;6.692;2022-10-16T19:15:23;3.97;;;3.20;;
3873;SDS011;1952;50.872;6.692;2022-10-16T19:17:57;6.27;;;3.20;;
3873;SDS011;1952;50.872;6.692;2022-10-16T19:20:26;3.23;;;3.03;;
3873;SDS011;1952;50.872;6.692;2022-10-16T19:22:54;3.10;;;2.90;;
3873;SDS011;1952;50.872;6.692;2022-10-16T19:25:24;3.77;;;3.47;;
3873;SDS011;1952;50.872;6.692;2022-10-16T19:27:53;3.20;;;2.90;;
3873;SDS011;1952;50.872;6.692;2022-10-16T19:30:21;3.53;;;3.33;;
3873;SDS011;1952;50.872;6.692;2022-10-16T19:32:53;3.23;;;2.93;;
3873;SDS011;1952;50.872;6.692;2022-10-16T19:35:21;3.57;;;3.27;;
3873;SDS011;1952;50.872;6.692;2022-10-16T19:37:53;3.63;;;3.43;;
3873;SDS011;1952;50.872;6.692;2022-10-16T19:40:21;3.67;;;3.37;;
3873;SDS011;1952;50.872;6.692;2022-10-16T19:42:54;3.80;;;3.50;;
3873;SDS011;1952;50.872;6.692;2022-10-16T19:45:29;4.90;;;3.77;;
3873;SDS011;1952;50.872;6.692;2022-10-16T19:47:57;3.90;;;3.60;;
3873;SDS011;1952;50.872;6.692;2022-10-16T19:50:53;3.40;;;3.20;;
3873;SDS011;1952;50.872;6.692;2022-10-16T19:56:48;5.23;;;3.27;;
3873;SDS011;1952;50.872;6.692;2022-10-16T19:59:31;3.37;;;3.07;;